Big Bear Station Historical Data
Daily Summary for June 19, 2019 Units:  Both    English   Metric
Next Day »
Daily Weekly Monthly Yearly Custom
  High: Low: Average:
Temperature: 84.4 °F /  29.1 °C 48.4 °F /  9.1 °C 64.4 °F /  18 °C
Dew Point: 53.7 °F /  12.1 °C 39.8 °F /  4.3 °C 45.8 °F /  7.7 °C
Humidity: 90% 23% 56%
Wind Speed: 4.7mph /  7.6km/h - 0.3mph /  0.5km/h
Wind Gust: -999mph /  -1607.7km/h - -
Wind- - WSW
Pressure: 23.60 in /  799.1 hPa 23.55 in /  797.4 hPa -
Precipitation: 0 in /  0 mm    
Historical Graphs
 
 
Tabular Data for June 19, 2019
Time Temperature Dew Point Pressure Wind Wind Speed Wind Gust Humidity Rainfall Rate (Hourly)
00:07 53.6 °F /  12 °C 42.1 °F /  5.6 °C 23.60in /  799.1hPa Calm   -999mph /  -1607.7km/h 65% 0.00in /  0mm
00:22 53.2 °F /  11.8 °C 42.1 °F /  5.6 °C 23.60in /  799.1hPa Calm   -999mph /  -1607.7km/h 66% 0.00in /  0mm
00:37 53.1 °F /  11.7 °C 42 °F /  5.6 °C 23.59in /  798.8hPa Calm   -999mph /  -1607.7km/h 66% 0.00in /  0mm
00:52 52.5 °F /  11.4 °C 41.9 °F /  5.5 °C 23.59in /  798.8hPa Calm   -999mph /  -1607.7km/h 67% 0.00in /  0mm
01:08 52 °F /  11.1 °C 42.1 °F /  5.6 °C 23.59in /  798.8hPa Calm   -999mph /  -1607.7km/h 69% 0.00in /  0mm
01:23 51.6 °F /  10.9 °C 42.5 °F /  5.8 °C 23.59in /  798.8hPa Calm   -999mph /  -1607.7km/h 71% 0.00in /  0mm
01:38 51.4 °F /  10.8 °C 42.7 °F /  5.9 °C 23.58in /  798.4hPa Calm   -999mph /  -1607.7km/h 72% 0.00in /  0mm
01:53 51.1 °F /  10.6 °C 42 °F /  5.6 °C 23.58in /  798.4hPa Calm   -999mph /  -1607.7km/h 71% 0.00in /  0mm
02:08 50.9 °F /  10.5 °C 42.9 °F /  6.1 °C 23.58in /  798.4hPa Calm   -999mph /  -1607.7km/h 74% 0.00in /  0mm
02:24 50.7 °F /  10.4 °C 44.1 °F /  6.7 °C 23.58in /  798.4hPa Calm   -999mph /  -1607.7km/h 78% 0.00in /  0mm
02:39 50.4 °F /  10.2 °C 44.1 °F /  6.7 °C 23.57in /  798.1hPa Calm   -999mph /  -1607.7km/h 79% 0.00in /  0mm
02:54 50.2 °F /  10.1 °C 44.6 °F /  7 °C 23.57in /  798.1hPa Calm   -999mph /  -1607.7km/h 81% 0.00in /  0mm
03:09 49.8 °F /  9.9 °C 44.5 °F /  6.9 °C 23.57in /  798.1hPa Calm   -999mph /  -1607.7km/h 82% 0.00in /  0mm
03:24 49.5 °F /  9.7 °C 44.9 °F /  7.2 °C 23.57in /  798.1hPa Calm   -999mph /  -1607.7km/h 84% 0.00in /  0mm
03:40 49.6 °F /  9.8 °C 45.3 °F /  7.4 °C 23.57in /  798.1hPa Calm   -999mph /  -1607.7km/h 85% 0.00in /  0mm
03:55 49.5 °F /  9.7 °C 45.5 °F /  7.5 °C 23.57in /  798.1hPa Calm   -999mph /  -1607.7km/h 86% 0.00in /  0mm
04:10 49.1 °F /  9.5 °C 45.4 °F /  7.4 °C 23.57in /  798.1hPa Calm   -999mph /  -1607.7km/h 87% 0.00in /  0mm
04:25 49.1 °F /  9.5 °C 45.4 °F /  7.4 °C 23.57in /  798.1hPa Calm   -999mph /  -1607.7km/h 87% 0.00in /  0mm
04:40 48.9 °F /  9.4 °C 45.2 °F /  7.3 °C 23.57in /  798.1hPa Calm   -999mph /  -1607.7km/h 87% 0.00in /  0mm
04:56 48.6 °F /  9.2 °C 44.9 °F /  7.2 °C 23.57in /  798.1hPa Calm   -999mph /  -1607.7km/h 87% 0.00in /  0mm
05:11 48.6 °F /  9.2 °C 45.2 °F /  7.3 °C 23.57in /  798.1hPa Calm   -999mph /  -1607.7km/h 88% 0.00in /  0mm
05:26 48.6 °F /  9.2 °C 45.2 °F /  7.3 °C 23.57in /  798.1hPa Calm   -999mph /  -1607.7km/h 88% 0.00in /  0mm
05:41 48.4 °F /  9.1 °C 45 °F /  7.2 °C 23.58in /  798.4hPa Calm   -999mph /  -1607.7km/h 88% 0.00in /  0mm
05:56 48.4 °F /  9.1 °C 45.3 °F /  7.4 °C 23.58in /  798.4hPa Calm   -999mph /  -1607.7km/h 89% 0.00in /  0mm
06:12 48.6 °F /  9.2 °C 45.5 °F /  7.5 °C 23.58in /  798.4hPa Calm   -999mph /  -1607.7km/h 89% 0.00in /  0mm
06:27 48.7 °F /  9.3 °C 45.9 °F /  7.7 °C 23.58in /  798.4hPa Calm   -999mph /  -1607.7km/h 90% 0.00in /  0mm
06:42 48.6 °F /  9.2 °C 45.8 °F /  7.7 °C 23.59in /  798.8hPa Calm   -999mph /  -1607.7km/h 90% 0.00in /  0mm
06:57 49.3 °F /  9.6 °C 46.2 °F /  7.9 °C 23.59in /  798.8hPa Calm   -999mph /  -1607.7km/h 89% 0.00in /  0mm
07:13 50.4 °F /  10.2 °C 47.3 °F /  8.5 °C 23.59in /  798.8hPa Calm   -999mph /  -1607.7km/h 89% 0.00in /  0mm
07:28 51.1 °F /  10.6 °C 47.7 °F /  8.7 °C 23.59in /  798.8hPa Calm   -999mph /  -1607.7km/h 88% 0.00in /  0mm
07:43 52.2 °F /  11.2 °C 49.1 °F /  9.5 °C 23.59in /  798.8hPa Calm   -999mph /  -1607.7km/h 89% 0.00in /  0mm
07:58 54.1 °F /  12.3 °C 50.3 °F /  10.2 °C 23.59in /  798.8hPa Calm   -999mph /  -1607.7km/h 87% 0.00in /  0mm
08:13 56.3 °F /  13.5 °C 50.9 °F /  10.5 °C 23.59in /  798.8hPa Calm   -999mph /  -1607.7km/h 82% 0.00in /  0mm
08:29 57.9 °F /  14.4 °C 52.4 °F /  11.3 °C 23.59in /  798.8hPa Calm   -999mph /  -1607.7km/h 82% 0.00in /  0mm
08:44 59.5 °F /  15.3 °C 53.3 °F /  11.8 °C 23.59in /  798.8hPa Calm   -999mph /  -1607.7km/h 80% 0.00in /  0mm
08:59 61.2 °F /  16.2 °C 53.6 °F /  12 °C 23.59in /  798.8hPa Calm   -999mph /  -1607.7km/h 76% 0.00in /  0mm
09:14 63 °F /  17.2 °C 50.2 °F /  10.1 °C 23.59in /  798.8hPa Calm   -999mph /  -1607.7km/h 63% 0.00in /  0mm
09:29 66.7 °F /  19.3 °C 53.7 °F /  12.1 °C 23.59in /  798.8hPa Calm   -999mph /  -1607.7km/h 63% 0.00in /  0mm
09:45 69.4 °F /  20.8 °C 42 °F /  5.6 °C 23.59in /  798.8hPa Calm   -999mph /  -1607.7km/h 37% 0.00in /  0mm
10:00 71.8 °F /  22.1 °C 41.9 °F /  5.5 °C 23.59in /  798.8hPa Calm   -999mph /  -1607.7km/h 34% 0.00in /  0mm
10:15 73.4 °F /  23 °C 42.6 °F /  5.9 °C 23.59in /  798.8hPa Calm   -999mph /  -1607.7km/h 33% 0.00in /  0mm
10:30 74.1 °F /  23.4 °C 42.4 °F /  5.8 °C 23.59in /  798.8hPa Calm   -999mph /  -1607.7km/h 32% 0.00in /  0mm
10:45 75.4 °F /  24.1 °C 41.8 °F /  5.4 °C 23.59in /  798.8hPa Calm   -999mph /  -1607.7km/h 30% 0.00in /  0mm
11:01 76.6 °F /  24.8 °C 42 °F /  5.6 °C 23.59in /  798.8hPa Calm   -999mph /  -1607.7km/h 29% 0.00in /  0mm
11:16 77.7 °F /  25.4 °C 41.1 °F /  5.1 °C 23.60in /  799.1hPa Calm   -999mph /  -1607.7km/h 27% 0.00in /  0mm
11:31 78.8 °F /  26 °C 42 °F /  5.6 °C 23.59in /  798.8hPa Calm   -999mph /  -1607.7km/h 27% 0.00in /  0mm
11:46 79 °F /  26.1 °C 41.2 °F /  5.1 °C 23.60in /  799.1hPa West 1.1mph /  1.8km/h -999mph /  -1607.7km/h 26% 0.00in /  0mm
12:01 82.8 °F /  28.2 °C 43.4 °F /  6.3 °C 23.60in /  799.1hPa Calm   -999mph /  -1607.7km/h 25% 0.00in /  0mm
12:17 81.7 °F /  27.6 °C 43.5 °F /  6.4 °C 23.60in /  799.1hPa Calm   -999mph /  -1607.7km/h 26% 0.00in /  0mm
12:32 82.8 °F /  28.2 °C 42.3 °F /  5.7 °C 23.59in /  798.8hPa Calm   -999mph /  -1607.7km/h 24% 0.00in /  0mm
12:47 84.4 °F /  29.1 °C 43.7 °F /  6.5 °C 23.59in /  798.8hPa Calm   -999mph /  -1607.7km/h 24% 0.00in /  0mm
13:02 84.2 °F /  29 °C 43.5 °F /  6.4 °C 23.59in /  798.8hPa Calm   -999mph /  -1607.7km/h 24% 0.00in /  0mm
13:17 84.2 °F /  29 °C 42.4 °F /  5.8 °C 23.58in /  798.4hPa WNW 4.7mph /  7.6km/h -999mph /  -1607.7km/h 23% 0.00in /  0mm
13:33 82.2 °F /  27.9 °C 48.6 °F /  9.2 °C 23.58in /  798.4hPa Calm   -999mph /  -1607.7km/h 31% 0.00in /  0mm
13:48 82.2 °F /  27.9 °C 52.6 °F /  11.4 °C 23.58in /  798.4hPa NW 1.1mph /  1.8km/h -999mph /  -1607.7km/h 36% 0.00in /  0mm
14:03 82 °F /  27.8 °C 52.4 °F /  11.3 °C 23.57in /  798.1hPa NNE 3.7mph /  6km/h -999mph /  -1607.7km/h 36% 0.00in /  0mm
14:18 81.5 °F /  27.5 °C 53.5 °F /  11.9 °C 23.57in /  798.1hPa Calm   -999mph /  -1607.7km/h 38% 0.00in /  0mm
14:34 81 °F /  27.2 °C 53 °F /  11.7 °C 23.57in /  798.1hPa NNW 1.7mph /  2.7km/h -999mph /  -1607.7km/h 38% 0.00in /  0mm
14:49 80.4 °F /  26.9 °C 52.5 °F /  11.4 °C 23.57in /  798.1hPa NNW 3.2mph /  5.1km/h -999mph /  -1607.7km/h 38% 0.00in /  0mm
15:04 80.8 °F /  27.1 °C 53.5 °F /  11.9 °C 23.57in /  798.1hPa WNW 1.7mph /  2.7km/h -999mph /  -1607.7km/h 39% 0.00in /  0mm
15:19 78.3 °F /  25.7 °C 51.3 °F /  10.7 °C 23.57in /  798.1hPa NNE 1.7mph /  2.7km/h -999mph /  -1607.7km/h 39% 0.00in /  0mm
15:34 79.5 °F /  26.4 °C 52.4 °F /  11.3 °C 23.57in /  798.1hPa NW 3.7mph /  6km/h -999mph /  -1607.7km/h 39% 0.00in /  0mm
15:50 79.2 °F /  26.2 °C 52.1 °F /  11.2 °C 23.57in /  798.1hPa NW 3.2mph /  5.1km/h -999mph /  -1607.7km/h 39% 0.00in /  0mm
16:05 77.7 °F /  25.4 °C 52.1 °F /  11.2 °C 23.56in /  797.7hPa Calm   -999mph /  -1607.7km/h 41% 0.00in /  0mm
16:20 77 °F /  25 °C 50.8 °F /  10.4 °C 23.56in /  797.7hPa Calm   -999mph /  -1607.7km/h 40% 0.00in /  0mm
16:35 77.9 °F /  25.5 °C 51 °F /  10.6 °C 23.56in /  797.7hPa Calm   -999mph /  -1607.7km/h 39% 0.00in /  0mm
16:50 78.8 °F /  26 °C 51.1 °F /  10.6 °C 23.56in /  797.7hPa Calm   -999mph /  -1607.7km/h 38% 0.00in /  0mm
17:06 79.5 °F /  26.4 °C 51.7 °F /  10.9 °C 23.56in /  797.7hPa Calm   -999mph /  -1607.7km/h 38% 0.00in /  0mm
17:21 81.1 °F /  27.3 °C 51.6 °F /  10.9 °C 23.56in /  797.7hPa Calm   -999mph /  -1607.7km/h 36% 0.00in /  0mm
17:36 81.7 °F /  27.6 °C 51.4 °F /  10.8 °C 23.56in /  797.7hPa Calm   -999mph /  -1607.7km/h 35% 0.00in /  0mm
17:51 80.8 °F /  27.1 °C 51.4 °F /  10.8 °C 23.56in /  797.7hPa NW 1.7mph /  2.7km/h -999mph /  -1607.7km/h 36% 0.00in /  0mm
18:06 79.7 °F /  26.5 °C 50.4 °F /  10.2 °C 23.55in /  797.4hPa Calm   -999mph /  -1607.7km/h 36% 0.00in /  0mm
18:22 77.5 °F /  25.3 °C 50.6 °F /  10.3 °C 23.55in /  797.4hPa Calm   -999mph /  -1607.7km/h 39% 0.00in /  0mm
18:37 77.5 °F /  25.3 °C 47.7 °F /  8.7 °C 23.55in /  797.4hPa Calm   -999mph /  -1607.7km/h 35% 0.00in /  0mm
18:52 73.2 °F /  22.9 °C 47.4 °F /  8.6 °C 23.55in /  797.4hPa Calm   -999mph /  -1607.7km/h 40% 0.00in /  0mm
19:07 71.6 °F /  22 °C 48.5 °F /  9.2 °C 23.56in /  797.7hPa Calm   -999mph /  -1607.7km/h 44% 0.00in /  0mm
19:22 68.9 °F /  20.5 °C 49 °F /  9.4 °C 23.56in /  797.7hPa Calm   -999mph /  -1607.7km/h 49% 0.00in /  0mm
19:38 66 °F /  18.9 °C 46.8 °F /  8.2 °C 23.56in /  797.7hPa Calm   -999mph /  -1607.7km/h 50% 0.00in /  0mm
19:53 64.9 °F /  18.3 °C 43.1 °F /  6.2 °C 23.56in /  797.7hPa Calm   -999mph /  -1607.7km/h 45% 0.00in /  0mm
20:08 63.3 °F /  17.4 °C 41.6 °F /  5.3 °C 23.56in /  797.7hPa Calm   -999mph /  -1607.7km/h 45% 0.00in /  0mm
20:23 62.4 °F /  16.9 °C 41.3 °F /  5.2 °C 23.56in /  797.7hPa Calm   -999mph /  -1607.7km/h 46% 0.00in /  0mm
20:39 61.7 °F /  16.5 °C 41.3 °F /  5.2 °C 23.57in /  798.1hPa Calm   -999mph /  -1607.7km/h 47% 0.00in /  0mm
20:54 61 °F /  16.1 °C 40.6 °F /  4.8 °C 23.57in /  798.1hPa Calm   -999mph /  -1607.7km/h 47% 0.00in /  0mm
21:09 60.8 °F /  16 °C 41 °F /  5 °C 23.57in /  798.1hPa Calm   -999mph /  -1607.7km/h 48% 0.00in /  0mm
21:24 60.4 °F /  15.8 °C 40.1 °F /  4.5 °C 23.57in /  798.1hPa Calm   -999mph /  -1607.7km/h 47% 0.00in /  0mm
21:39 60.1 °F /  15.6 °C 40.3 °F /  4.6 °C 23.58in /  798.4hPa Calm   -999mph /  -1607.7km/h 48% 0.00in /  0mm
21:55 59.5 °F /  15.3 °C 39.8 °F /  4.3 °C 23.58in /  798.4hPa Calm   -999mph /  -1607.7km/h 48% 0.00in /  0mm
22:10 59.7 °F /  15.4 °C 40 °F /  4.4 °C 23.58in /  798.4hPa Calm   -999mph /  -1607.7km/h 48% 0.00in /  0mm
22:25 58.8 °F /  14.9 °C 40.2 °F /  4.6 °C 23.58in /  798.4hPa Calm   -999mph /  -1607.7km/h 50% 0.00in /  0mm
22:40 58.5 °F /  14.7 °C 40.4 °F /  4.7 °C 23.58in /  798.4hPa Calm   -999mph /  -1607.7km/h 51% 0.00in /  0mm
22:55 57.6 °F /  14.2 °C 40.1 °F /  4.5 °C 23.58in /  798.4hPa Calm   -999mph /  -1607.7km/h 52% 0.00in /  0mm
23:11 57.2 °F /  14 °C 40.2 °F /  4.6 °C 23.57in /  798.1hPa Calm   -999mph /  -1607.7km/h 53% 0.00in /  0mm
23:26 56.7 °F /  13.7 °C 40.2 °F /  4.6 °C 23.57in /  798.1hPa Calm   -999mph /  -1607.7km/h 54% 0.00in /  0mm
23:41 55.9 °F /  13.3 °C 41.3 °F /  5.2 °C 23.57in /  798.1hPa Calm   -999mph /  -1607.7km/h 58% 0.00in /  0mm
23:56 55.2 °F /  12.9 °C 41.1 °F /  5.1 °C 23.56in /  797.7hPa Calm   -999mph /  -1607.7km/h 59% 0.00in /  0mm
Big Bear CA Weather